createdAt,value
2023-04-06T00:00:20.882Z,55.42
2023-04-06T00:01:20.904Z,49.20
2023-04-06T00:02:20.953Z,45.83
2023-04-06T00:03:20.954Z,50.04
2023-04-06T00:04:20.845Z,45.54
2023-04-06T00:05:20.860Z,47.37
2023-04-06T00:06:20.864Z,52.49
2023-04-06T00:07:20.832Z,44.80
2023-04-06T00:08:20.824Z,53.57
2023-04-06T00:09:20.809Z,49.73
2023-04-06T00:10:20.804Z,48.38
2023-04-06T00:11:20.829Z,46.93
2023-04-06T00:12:20.802Z,50.40
2023-04-06T00:13:20.786Z,52.88
2023-04-06T00:14:20.777Z,53.96
2023-04-06T00:15:20.776Z,46.62
2023-04-06T00:16:21.577Z,45.19
2023-04-06T00:17:20.755Z,54.95
2023-04-06T00:18:20.789Z,46.23
2023-04-06T00:19:20.743Z,48.82
2023-04-06T00:20:20.730Z,52.06
2023-04-06T00:21:20.748Z,54.55
2023-04-06T00:22:20.718Z,54.76
2023-04-06T00:23:20.730Z,53.38
2023-04-06T00:24:20.711Z,55.98
2023-04-06T00:25:20.699Z,49.15
2023-04-06T00:26:20.728Z,55.26
2023-04-06T00:27:20.685Z,51.52
2023-04-06T00:28:20.665Z,56.40
2023-04-06T00:29:21.683Z,54.45
2023-04-06T00:30:20.659Z,55.91
2023-04-06T00:31:20.660Z,49.64
2023-04-06T00:32:20.727Z,44.44
2023-04-06T00:33:20.644Z,50.65
2023-04-06T00:34:20.643Z,56.97
2023-04-06T00:35:20.630Z,51.87
2023-04-06T00:36:21.706Z,44.71
2023-04-06T00:37:20.641Z,44.45
2023-04-06T00:38:20.603Z,48.78
2023-04-06T00:39:21.254Z,55.63
2023-04-06T00:40:21.587Z,54.10
2023-04-06T00:41:20.584Z,50.83
2023-04-06T00:42:20.596Z,57.93
2023-04-06T00:43:20.567Z,58.34
2023-04-06T00:44:20.589Z,56.34
2023-04-06T00:45:20.557Z,51.61
2023-04-06T00:46:20.573Z,47.46
2023-04-06T00:47:20.566Z,51.74
2023-04-06T00:48:20.543Z,55.34
2023-04-06T00:49:20.532Z,48.25
2023-04-06T00:50:20.518Z,56.91
2023-04-06T00:51:20.505Z,56.25
2023-04-06T00:52:20.525Z,49.95
2023-04-06T00:53:20.495Z,46.15
2023-04-06T00:54:20.484Z,49.53
2023-04-06T00:55:20.488Z,53.14
2023-04-06T00:56:20.480Z,49.15
2023-04-06T00:57:20.506Z,47.33
2023-04-06T00:58:20.452Z,48.90
2023-04-06T00:59:20.561Z,47.50
2023-04-06T01:00:20.449Z,44.15
2023-04-06T01:01:20.498Z,48.59
2023-04-06T01:02:20.478Z,46.33
2023-04-06T01:03:20.425Z,50.03
2023-04-06T01:04:20.421Z,50.64
2023-04-06T01:05:20.436Z,52.19
2023-04-06T01:06:20.410Z,45.75
2023-04-06T01:07:20.416Z,43.34
2023-04-06T01:08:20.381Z,45.03
2023-04-06T01:09:20.380Z,48.69
2023-04-06T01:10:20.371Z,42.70
2023-04-06T01:11:20.421Z,51.38
2023-04-06T01:12:20.389Z,52.64
2023-04-06T01:13:20.357Z,52.71
2023-04-06T01:14:20.339Z,55.23
2023-04-06T01:15:20.331Z,54.91
2023-04-06T01:16:20.353Z,48.68
2023-04-06T01:17:20.354Z,52.88
2023-04-06T01:18:20.316Z,49.33
2023-04-06T01:19:20.312Z,53.21
2023-04-06T01:20:20.317Z,54.62
2023-04-06T01:21:20.292Z,48.84
2023-04-06T01:22:20.310Z,50.93
2023-04-06T01:23:20.275Z,51.66
2023-04-06T01:24:20.274Z,49.15
2023-04-06T01:25:20.267Z,43.91
2023-04-06T01:26:20.247Z,54.78
2023-04-06T01:27:20.270Z,61.44
2023-04-06T01:28:20.237Z,50.86
2023-04-06T01:29:20.234Z,52.07
2023-04-06T01:30:20.217Z,52.24
2023-04-06T01:31:20.218Z,55.97
2023-04-06T01:32:21.257Z,57.69
2023-04-06T01:33:20.204Z,50.08
2023-04-06T01:34:20.199Z,54.32
2023-04-06T01:35:20.202Z,53.76
2023-04-06T01:36:20.183Z,51.59
2023-04-06T01:37:20.196Z,52.65
2023-04-06T01:38:20.166Z,49.15
2023-04-06T01:39:20.158Z,51.59
2023-04-06T01:40:20.161Z,53.02
2023-04-06T01:41:20.139Z,58.02
2023-04-06T01:42:20.161Z,55.45
2023-04-06T01:43:20.130Z,56.44
2023-04-06T01:44:20.136Z,59.03
2023-04-06T01:45:20.113Z,53.97
2023-04-06T01:46:20.141Z,57.70
2023-04-06T01:47:20.145Z,53.53
2023-04-06T01:48:21.095Z,55.28
2023-04-06T01:49:20.086Z,53.97
2023-04-06T01:50:20.076Z,52.05
2023-04-06T01:51:20.068Z,46.78
2023-04-06T01:52:20.087Z,52.70
2023-04-06T01:53:20.061Z,56.75
2023-04-06T01:54:20.053Z,49.52
2023-04-06T01:55:20.040Z,51.38
2023-04-06T01:56:20.044Z,46.46
2023-04-06T01:57:20.063Z,44.51
2023-04-06T01:58:20.024Z,48.34
2023-04-06T01:59:20.048Z,43.99
2023-04-06T02:00:20.004Z,56.54
2023-04-06T02:01:20.151Z,58.21
2023-04-06T02:02:20.042Z,46.77
2023-04-06T02:03:20.033Z,54.70
2023-04-06T02:04:19.977Z,57.93
2023-04-06T02:05:19.971Z,57.29
2023-04-06T02:06:19.970Z,53.00
2023-04-06T02:07:19.987Z,53.13
2023-04-06T02:08:19.958Z,47.28
2023-04-06T02:09:19.940Z,54.07
2023-04-06T02:10:19.939Z,56.72
2023-04-06T02:11:19.924Z,52.26
2023-04-06T02:12:19.946Z,52.38
2023-04-06T02:13:19.909Z,43.59
2023-04-06T02:14:19.902Z,47.57
2023-04-06T02:15:19.900Z,55.57
2023-04-06T02:16:19.935Z,52.23
2023-04-06T02:17:19.904Z,46.79
2023-04-06T02:18:19.876Z,52.69
2023-04-06T02:19:19.898Z,49.45
2023-04-06T02:20:19.855Z,46.52
2023-04-06T02:21:19.855Z,51.71
2023-04-06T02:22:19.868Z,52.07
2023-04-06T02:23:19.837Z,62.20
2023-04-06T02:24:19.887Z,56.24
2023-04-06T02:25:19.819Z,57.91
2023-04-06T02:26:19.826Z,56.93
2023-04-06T02:27:19.843Z,61.58
2023-04-06T02:28:19.802Z,58.09
2023-04-06T02:29:19.793Z,57.44
2023-04-06T02:30:19.778Z,55.76
2023-04-06T02:31:19.794Z,55.86
2023-04-06T02:32:19.795Z,58.05
2023-04-06T02:33:19.758Z,50.76
2023-04-06T02:34:19.770Z,57.19
2023-04-06T02:35:19.804Z,53.74
2023-04-06T02:36:19.752Z,50.91
2023-04-06T02:37:19.757Z,57.09
2023-04-06T02:38:19.722Z,49.00
2023-04-06T02:39:19.714Z,46.13
2023-04-06T02:40:19.715Z,50.02
2023-04-06T02:41:19.709Z,47.19
2023-04-06T02:42:19.716Z,51.22
2023-04-06T02:43:19.696Z,51.65
2023-04-06T02:44:19.689Z,54.28
2023-04-06T02:45:19.683Z,53.74
2023-04-06T02:46:19.709Z,60.84
2023-04-06T02:47:19.681Z,47.47
2023-04-06T02:48:19.652Z,56.38
2023-04-06T02:49:19.640Z,52.64
2023-04-06T02:50:19.636Z,52.56
2023-04-06T02:51:19.626Z,49.74
2023-04-06T02:52:19.645Z,53.35
2023-04-06T02:53:19.620Z,54.80
2023-04-06T02:54:19.605Z,54.87
2023-04-06T02:55:22.025Z,48.76
2023-04-06T02:56:19.594Z,54.96
2023-04-06T02:57:19.616Z,53.91
2023-04-06T02:58:19.578Z,59.43
2023-04-06T02:59:19.648Z,51.62
2023-04-06T03:00:19.561Z,49.46
2023-04-06T03:01:19.569Z,57.59
2023-04-06T03:02:19.613Z,55.78
2023-04-06T03:03:19.675Z,50.76
2023-04-06T03:04:20.535Z,55.59
2023-04-06T03:05:19.532Z,58.74
2023-04-06T03:06:19.527Z,53.07
2023-04-06T03:07:19.542Z,54.49
2023-04-06T03:08:19.516Z,54.03
2023-04-06T03:09:19.494Z,50.95
2023-04-06T03:10:19.503Z,55.30
2023-04-06T03:11:19.484Z,51.30
2023-04-06T03:12:19.492Z,52.62
2023-04-06T03:13:20.492Z,57.29
2023-04-06T03:14:19.463Z,54.89
2023-04-06T03:15:19.465Z,56.78
2023-04-06T03:16:19.651Z,54.56
2023-04-06T03:17:19.461Z,56.29
2023-04-06T03:18:19.438Z,55.72
2023-04-06T03:19:19.422Z,58.87
2023-04-06T03:20:19.419Z,58.73
2023-04-06T03:21:19.410Z,56.30
2023-04-06T03:22:19.403Z,60.30
2023-04-06T03:23:19.420Z,57.88
2023-04-06T03:24:19.396Z,58.71
2023-04-06T03:25:19.395Z,67.05
2023-04-06T03:26:19.373Z,60.63
2023-04-06T03:27:19.361Z,63.65
2023-04-06T03:28:19.380Z,60.27
2023-04-06T03:29:19.345Z,64.13
2023-04-06T03:30:19.346Z,62.11
2023-04-06T03:31:19.354Z,64.35
2023-04-06T03:32:19.330Z,62.69
2023-04-06T03:33:19.345Z,61.23
2023-04-06T03:34:19.309Z,63.44
2023-04-06T03:35:19.356Z,60.27
2023-04-06T03:36:19.298Z,61.88
2023-04-06T03:37:19.290Z,63.37
2023-04-06T03:38:19.320Z,63.64
2023-04-06T03:39:19.276Z,66.69
2023-04-06T03:40:19.270Z,59.27
2023-04-06T03:41:19.261Z,59.64
2023-04-06T03:42:19.253Z,62.43
2023-04-06T03:43:19.263Z,61.85
2023-04-06T03:44:19.234Z,61.52
2023-04-06T03:45:19.227Z,61.56
2023-04-06T03:46:19.295Z,59.25
2023-04-06T03:47:19.216Z,60.42
2023-04-06T03:48:19.235Z,60.18
2023-04-06T03:49:19.196Z,62.50
2023-04-06T03:50:19.212Z,61.81
2023-04-06T03:51:19.185Z,59.92
2023-04-06T03:52:19.173Z,62.28
2023-04-06T03:53:19.192Z,59.71
2023-04-06T03:54:19.161Z,60.19
2023-04-06T03:55:19.157Z,61.25
2023-04-06T03:56:19.151Z,62.91
2023-04-06T03:57:19.155Z,62.11
2023-04-06T03:58:19.158Z,63.40
2023-04-06T03:59:19.140Z,61.04
2023-04-06T04:00:19.121Z,59.11
2023-04-06T04:01:19.108Z,61.65
2023-04-06T04:02:19.185Z,63.87
2023-04-06T04:03:19.250Z,64.94
2023-04-06T04:04:19.090Z,61.58
2023-04-06T04:05:19.175Z,59.21
2023-04-06T04:06:19.089Z,59.82
2023-04-06T04:07:19.067Z,59.57
2023-04-06T04:08:19.085Z,57.99
2023-04-06T04:09:19.058Z,59.49
2023-04-06T04:10:19.047Z,62.93
2023-04-06T04:11:19.031Z,62.32
2023-04-06T04:12:19.025Z,65.13
2023-04-06T04:13:19.049Z,61.86
2023-04-06T04:14:19.027Z,64.17
2023-04-06T04:15:19.005Z,64.70
2023-04-06T04:16:19.037Z,64.72
2023-04-06T04:17:18.998Z,63.19
2023-04-06T04:18:19.017Z,63.72
2023-04-06T04:19:19.005Z,63.83
2023-04-06T04:20:18.971Z,61.08
2023-04-06T04:21:18.956Z,60.35
2023-04-06T04:22:19.967Z,60.47
2023-04-06T04:23:18.978Z,61.19
2023-04-06T04:24:18.969Z,62.37
2023-04-06T04:25:18.938Z,60.75
2023-04-06T04:26:18.927Z,61.47
2023-04-06T04:27:18.920Z,62.60
2023-04-06T04:28:18.946Z,61.75
2023-04-06T04:29:18.905Z,62.00
2023-04-06T04:30:18.916Z,62.96
2023-04-06T04:31:18.900Z,65.86
2023-04-06T04:32:18.904Z,64.24
2023-04-06T04:33:18.911Z,62.95
2023-04-06T04:34:18.881Z,62.72
2023-04-06T04:35:18.938Z,62.09
2023-04-06T04:36:18.861Z,64.30
2023-04-06T04:37:18.865Z,61.32
2023-04-06T04:38:18.873Z,61.67
2023-04-06T04:39:18.861Z,58.58
2023-04-06T04:40:18.839Z,64.07
2023-04-06T04:41:18.830Z,61.96
2023-04-06T04:44:37.399Z,62.98
2023-04-06T04:45:37.453Z,63.39
2023-04-06T04:46:37.389Z,60.91
2023-04-06T04:47:37.422Z,64.00
2023-04-06T04:48:37.411Z,62.49
2023-04-06T04:49:37.370Z,63.44
2023-04-06T04:50:37.363Z,63.84
2023-04-06T04:51:37.355Z,62.23
2023-04-06T04:52:37.346Z,62.67
2023-04-06T04:53:37.365Z,65.55
2023-04-06T04:54:37.340Z,64.65
2023-04-06T04:55:37.325Z,63.99
2023-04-06T04:56:37.326Z,65.00
2023-04-06T04:57:37.311Z,66.51
2023-04-06T04:58:37.336Z,65.76
2023-04-06T04:59:37.375Z,60.78
2023-04-06T05:00:37.289Z,63.17
2023-04-06T05:01:51.300Z,66.18
2023-04-06T05:02:38.324Z,64.23
2023-04-06T05:03:37.410Z,67.36
2023-04-06T05:04:37.269Z,66.94
2023-04-06T05:05:37.259Z,66.77
2023-04-06T05:06:37.245Z,65.86
2023-04-06T05:07:37.230Z,66.19
2023-04-06T05:08:37.269Z,64.53
2023-04-06T05:09:37.227Z,66.16
2023-04-06T05:10:37.213Z,63.44
2023-04-06T05:11:37.201Z,62.01
2023-04-06T05:12:37.200Z,63.79
2023-04-06T05:13:37.216Z,64.99
2023-04-06T05:14:37.182Z,65.78
2023-04-06T05:15:37.189Z,66.22
2023-04-06T05:16:37.175Z,63.66
2023-04-06T05:17:37.176Z,67.10
2023-04-06T05:18:37.182Z,63.40
2023-04-06T05:19:37.142Z,64.99
2023-04-06T05:20:37.153Z,65.08
2023-04-06T05:21:37.123Z,64.20
2023-04-06T05:22:37.121Z,64.78
2023-04-06T05:23:37.135Z,65.58
2023-04-06T05:24:37.108Z,61.10
2023-04-06T05:25:37.097Z,67.65
2023-04-06T05:26:37.096Z,64.44
2023-04-06T05:27:37.079Z,63.81
2023-04-06T05:28:37.099Z,63.71
2023-04-06T05:29:37.069Z,67.23
2023-04-06T05:30:37.066Z,64.93
2023-04-06T05:31:37.111Z,62.38
2023-04-06T05:32:37.074Z,66.54
2023-04-06T05:33:37.054Z,67.13
2023-04-06T05:34:37.025Z,63.31
2023-04-06T05:35:37.021Z,65.08
2023-04-06T05:36:37.013Z,65.10
2023-04-06T05:37:36.994Z,63.64
2023-04-06T05:38:37.018Z,66.04
2023-04-06T05:39:36.980Z,63.57
2023-04-06T05:40:36.969Z,62.52
2023-04-06T05:41:36.960Z,66.06
2023-04-06T05:42:36.953Z,63.03
2023-04-06T05:43:36.968Z,63.23
2023-04-06T05:44:36.936Z,63.10
2023-04-06T05:45:36.924Z,62.91
2023-04-06T05:46:36.966Z,61.75
2023-04-06T05:47:36.930Z,63.67
2023-04-06T05:48:36.933Z,62.67
2023-04-06T05:49:38.028Z,60.45
2023-04-06T05:50:38.028Z,64.09
2023-04-06T05:51:38.016Z,62.54
2023-04-06T05:52:38.010Z,63.26
2023-04-06T05:53:38.033Z,63.07
2023-04-06T05:54:37.998Z,59.81
2023-04-06T05:55:37.984Z,62.22
2023-04-06T05:56:37.979Z,63.94
2023-04-06T05:57:37.965Z,59.80
2023-04-06T05:58:37.983Z,62.41
2023-04-06T05:59:38.075Z,61.18
2023-04-06T06:00:37.952Z,63.88
2023-04-06T06:01:37.955Z,59.37
2023-04-06T06:02:38.067Z,60.97
2023-04-06T06:03:37.950Z,61.74
2023-04-06T06:04:37.929Z,60.19
2023-04-06T06:05:37.902Z,63.23
2023-04-06T06:06:37.913Z,58.07
2023-04-06T06:07:37.892Z,61.46
2023-04-06T06:08:37.925Z,60.55
2023-04-06T06:09:37.871Z,61.88
2023-04-06T06:10:37.860Z,58.49
2023-04-06T06:11:37.853Z,57.90
2023-04-06T06:12:37.848Z,60.08
2023-04-06T06:13:37.869Z,57.33
2023-04-06T06:14:37.827Z,62.10
2023-04-06T06:15:38.826Z,60.67
2023-04-06T06:16:37.857Z,63.01
2023-04-06T06:17:39.086Z,56.71
2023-04-06T06:18:38.836Z,58.11
2023-04-06T06:19:37.794Z,62.46
2023-04-06T06:20:37.790Z,59.82
2023-04-06T06:21:37.777Z,59.88
2023-04-06T06:22:38.072Z,60.16
2023-04-06T06:23:37.786Z,60.05
2023-04-06T06:24:38.757Z,62.41
2023-04-06T06:25:37.749Z,58.86
2023-04-06T06:26:37.739Z,57.18
2023-04-06T06:27:37.734Z,57.83
2023-04-06T06:28:37.750Z,59.31
2023-04-06T06:29:37.720Z,55.71
2023-04-06T06:30:37.730Z,57.54
2023-04-06T06:31:37.731Z,56.19
2023-04-06T06:32:37.756Z,60.28
2023-04-06T06:33:37.724Z,61.37
2023-04-06T06:34:37.682Z,58.67
2023-04-06T06:35:37.737Z,58.78
2023-04-06T06:36:37.677Z,62.90
2023-04-06T06:37:37.681Z,60.26
2023-04-06T06:38:37.693Z,55.51
2023-04-06T06:39:37.642Z,63.43
2023-04-06T06:40:37.645Z,62.80
2023-04-06T06:41:37.652Z,59.95
2023-04-06T06:42:37.628Z,60.38
2023-04-06T06:43:37.659Z,56.27
2023-04-06T06:44:37.620Z,60.07
2023-04-06T06:45:37.678Z,63.06
2023-04-06T06:46:37.611Z,62.46
2023-04-06T06:47:37.605Z,59.48
2023-04-06T06:48:37.632Z,61.00
2023-04-06T06:49:37.569Z,58.94
2023-04-06T06:50:37.561Z,59.58
2023-04-06T06:51:37.556Z,62.75
2023-04-06T06:52:37.566Z,57.52
2023-04-06T06:53:37.573Z,60.16
2023-04-06T06:54:37.540Z,59.50
2023-04-06T06:55:37.532Z,57.80
2023-04-06T06:56:37.522Z,61.35
2023-04-06T06:57:37.520Z,60.86
2023-04-06T06:58:37.534Z,62.45
2023-04-06T06:59:37.615Z,59.83
2023-04-06T07:00:37.511Z,52.50
2023-04-06T07:01:37.509Z,57.63
2023-04-06T07:02:37.500Z,60.46
2023-04-06T07:03:37.487Z,59.13
2023-04-06T07:04:37.562Z,58.30
2023-04-06T07:05:38.856Z,60.03
2023-04-06T07:06:37.466Z,62.40
2023-04-06T07:07:37.438Z,62.69
2023-04-06T07:08:37.456Z,58.86
2023-04-06T07:09:37.423Z,58.69
2023-04-06T07:10:37.418Z,59.75
2023-04-06T07:11:37.430Z,61.15
2023-04-06T07:12:37.398Z,58.99
2023-04-06T07:13:37.418Z,57.37
2023-04-06T07:14:37.384Z,63.03
2023-04-06T07:15:37.407Z,60.56
2023-04-06T07:16:37.415Z,63.49
2023-04-06T07:17:37.405Z,60.21
2023-04-06T07:18:37.384Z,57.83
2023-04-06T07:19:37.347Z,61.11
2023-04-06T07:20:37.344Z,57.30
2023-04-06T07:21:37.324Z,59.81
2023-04-06T07:22:37.327Z,61.38
2023-04-06T07:23:37.357Z,59.84
2023-04-06T07:24:37.307Z,62.67
2023-04-06T07:25:37.301Z,60.55
2023-04-06T07:26:37.300Z,61.89
2023-04-06T07:27:37.289Z,64.22
2023-04-06T07:28:37.336Z,60.84
2023-04-06T07:29:37.268Z,61.29
2023-04-06T07:30:37.293Z,61.73
2023-04-06T07:31:37.308Z,63.67
2023-04-06T07:32:37.311Z,59.72
2023-04-06T07:33:37.248Z,54.70
2023-04-06T07:34:37.293Z,63.41
2023-04-06T07:35:37.265Z,61.76
2023-04-06T07:36:37.251Z,59.49
2023-04-06T07:37:37.229Z,62.47
2023-04-06T07:38:37.212Z,62.10
2023-04-06T07:39:37.232Z,58.41
2023-04-06T07:40:37.198Z,62.36
2023-04-06T07:41:37.202Z,60.29
2023-04-06T07:42:37.182Z,62.17
2023-04-06T07:43:37.188Z,62.85
2023-04-06T07:44:37.192Z,58.21
2023-04-06T07:45:37.211Z,58.58
2023-04-06T07:46:37.234Z,60.77
2023-04-06T07:47:37.207Z,59.52
2023-04-06T07:48:37.135Z,62.33
2023-04-06T07:49:37.160Z,54.77
2023-04-06T07:50:37.123Z,60.74
2023-04-06T07:51:37.116Z,59.86
2023-04-06T07:52:38.433Z,59.38
2023-04-06T07:53:38.102Z,55.05
2023-04-06T07:54:37.125Z,62.97
2023-04-06T07:55:37.094Z,58.00
2023-04-06T07:56:37.078Z,61.23
2023-04-06T07:57:37.078Z,60.47
2023-04-06T07:58:37.065Z,61.33
2023-04-06T07:59:37.129Z,60.47
2023-04-06T08:00:37.052Z,58.61
2023-04-06T08:01:37.053Z,58.83
2023-04-06T08:02:37.094Z,60.26
2023-04-06T08:03:37.260Z,63.40
2023-04-06T08:04:37.118Z,60.98
2023-04-06T08:05:37.023Z,58.30
2023-04-06T08:06:37.006Z,62.32
2023-04-06T08:07:36.999Z,60.71
2023-04-06T08:08:36.995Z,57.75
2023-04-06T08:09:37.009Z,59.92
2023-04-06T08:10:36.985Z,61.32
2023-04-06T08:11:36.973Z,60.58
2023-04-06T08:12:36.968Z,56.52
2023-04-06T08:13:36.960Z,61.33
2023-04-06T08:14:36.977Z,60.25
2023-04-06T08:15:36.990Z,60.57
2023-04-06T08:16:36.933Z,58.24
2023-04-06T08:17:36.933Z,55.05
2023-04-06T08:18:36.924Z,59.04
2023-04-06T08:19:36.939Z,61.27
2023-04-06T08:20:36.904Z,61.18
2023-04-06T08:21:36.918Z,58.28
2023-04-06T08:22:37.890Z,63.25
2023-04-06T08:23:36.899Z,58.07
2023-04-06T08:24:36.902Z,62.18
2023-04-06T08:25:36.894Z,60.83
2023-04-06T08:26:36.880Z,60.84
2023-04-06T08:27:36.885Z,59.50
2023-04-06T08:28:36.934Z,58.92
2023-04-06T08:29:36.910Z,60.10
2023-04-06T08:30:36.858Z,62.01
2023-04-06T08:31:36.863Z,53.91
2023-04-06T08:32:36.886Z,62.92
2023-04-06T08:33:36.866Z,61.58
2023-04-06T08:34:36.865Z,60.52
2023-04-06T08:35:36.910Z,58.35
2023-04-06T08:36:36.799Z,56.28
2023-04-06T08:37:36.788Z,62.04
2023-04-06T08:38:36.778Z,60.46
2023-04-06T08:39:36.827Z,53.73
2023-04-06T08:40:36.764Z,58.85
2023-04-06T08:41:36.758Z,56.25
2023-04-06T08:42:36.751Z,60.73
2023-04-06T08:43:36.743Z,51.39
2023-04-06T08:44:36.757Z,57.47
2023-04-06T08:45:36.728Z,54.45
2023-04-06T08:46:36.756Z,59.25
2023-04-06T08:47:36.775Z,52.28
2023-04-06T08:48:36.707Z,58.09
2023-04-06T08:49:36.720Z,58.72
2023-04-06T08:50:36.695Z,55.96
2023-04-06T08:51:36.679Z,59.00
2023-04-06T08:52:36.680Z,60.55
2023-04-06T08:53:36.677Z,57.86
2023-04-06T08:54:36.702Z,57.64
2023-04-06T08:55:36.658Z,55.40
2023-04-06T08:56:36.656Z,58.35
2023-04-06T08:57:36.648Z,57.44
2023-04-06T08:58:38.572Z,57.94
2023-04-06T08:59:37.906Z,58.04
2023-04-06T09:00:36.625Z,58.52
2023-04-06T09:01:36.650Z,58.30
2023-04-06T09:02:36.652Z,55.28
2023-04-06T09:03:36.684Z,56.15
2023-04-06T09:04:36.695Z,54.09
2023-04-06T09:05:36.590Z,61.20
2023-04-06T09:06:36.583Z,59.79
2023-04-06T09:07:36.578Z,57.82
2023-04-06T09:08:36.562Z,54.11
2023-04-06T09:09:36.611Z,58.54
2023-04-06T09:10:36.565Z,57.20
2023-04-06T09:11:36.552Z,55.32
2023-04-06T09:12:36.544Z,55.21
2023-04-06T09:13:36.527Z,53.64
2023-04-06T09:14:36.560Z,58.49
2023-04-06T09:15:36.545Z,56.30
2023-04-06T09:16:36.567Z,54.70
2023-04-06T09:17:36.514Z,53.96
2023-04-06T09:18:36.491Z,52.71
2023-04-06T09:19:36.511Z,56.97
2023-04-06T09:20:36.481Z,55.54
2023-04-06T09:21:36.476Z,56.22
2023-04-06T09:22:36.467Z,53.40
2023-04-06T09:23:36.503Z,50.28
2023-04-06T09:24:36.473Z,54.10
2023-04-06T09:25:36.442Z,51.94
2023-04-06T09:26:36.449Z,52.89
2023-04-06T09:27:36.432Z,55.56
2023-04-06T09:28:36.420Z,52.22
2023-04-06T09:29:36.456Z,53.76
2023-04-06T09:30:36.411Z,57.32
2023-04-06T09:31:36.460Z,53.19
2023-04-06T09:32:36.449Z,56.77
2023-04-06T09:33:36.390Z,58.51
2023-04-06T09:34:36.423Z,57.01
2023-04-06T09:35:36.455Z,54.67
2023-04-06T09:36:36.358Z,57.04
2023-04-06T09:37:36.361Z,52.72
2023-04-06T09:38:36.351Z,48.89
2023-04-06T09:39:36.365Z,48.80
2023-04-06T09:40:36.333Z,54.77
2023-04-06T09:41:36.346Z,59.94
2023-04-06T09:42:36.331Z,54.45
2023-04-06T09:43:36.314Z,53.75
2023-04-06T09:44:36.330Z,55.92
2023-04-06T09:45:36.295Z,56.21
2023-04-06T09:46:50.654Z,56.02
2023-04-06T09:47:38.412Z,56.42
2023-04-06T09:48:36.315Z,58.66
2023-04-06T09:49:36.324Z,56.00
2023-04-06T09:50:36.265Z,52.24
2023-04-06T09:51:37.442Z,55.95
2023-04-06T09:52:36.242Z,58.10
2023-04-06T09:53:36.233Z,57.02
2023-04-06T09:54:36.250Z,57.16
2023-04-06T09:55:36.236Z,58.43
2023-04-06T09:56:36.213Z,54.68
2023-04-06T09:57:36.208Z,54.62
2023-04-06T09:58:36.194Z,53.65
2023-04-06T09:59:36.242Z,56.84
2023-04-06T10:00:36.202Z,54.72
2023-04-06T10:01:36.204Z,58.03
2023-04-06T10:02:36.321Z,55.21
2023-04-06T10:03:36.255Z,55.88
2023-04-06T10:04:36.175Z,55.13
2023-04-06T10:05:36.190Z,58.20
2023-04-06T10:06:36.138Z,56.51
2023-04-06T10:07:43.202Z,56.10
2023-04-06T10:08:37.143Z,57.08
2023-04-06T10:09:36.148Z,52.70
2023-04-06T10:10:36.108Z,58.25
2023-04-06T10:11:36.124Z,53.74
2023-04-06T10:12:36.083Z,56.73
2023-04-06T10:13:36.098Z,57.14
2023-04-06T10:14:36.102Z,54.85
2023-04-06T10:15:36.077Z,56.21
2023-04-06T10:16:36.080Z,56.89
2023-04-06T10:17:36.092Z,54.52
2023-04-06T10:18:36.037Z,54.46
2023-04-06T10:19:36.036Z,54.49
2023-04-06T10:20:36.043Z,51.77
2023-04-06T10:21:36.030Z,53.55
2023-04-06T10:22:36.005Z,53.55
2023-04-06T10:23:35.999Z,53.94
2023-04-06T10:24:35.989Z,56.92
2023-04-06T10:25:36.017Z,52.81
2023-04-06T10:26:35.975Z,52.97
2023-04-06T10:27:35.967Z,52.70
2023-04-06T10:28:35.952Z,54.02
2023-04-06T10:29:36.952Z,53.98
2023-04-06T10:30:35.970Z,54.14
2023-04-06T10:31:35.976Z,55.25
2023-04-06T10:32:35.980Z,53.03
2023-04-06T10:33:35.933Z,52.92
2023-04-06T10:34:35.915Z,53.41
2023-04-06T10:35:35.967Z,52.35
2023-04-06T10:36:35.967Z,57.33
2023-04-06T10:37:35.899Z,57.62
2023-04-06T10:38:37.645Z,51.82
2023-04-06T10:39:35.877Z,57.51
2023-04-06T10:40:36.253Z,53.60
2023-04-06T10:41:35.883Z,55.46
2023-04-06T10:42:35.860Z,54.49
2023-04-06T10:43:35.918Z,57.04
2023-04-06T10:44:35.848Z,55.17
2023-04-06T10:45:35.886Z,52.06
2023-04-06T10:49:10.451Z,57.09
2023-04-06T10:50:10.448Z,51.57
2023-04-06T10:51:10.462Z,52.58
2023-04-06T10:52:10.430Z,56.68
2023-04-06T10:53:10.416Z,55.16
2023-04-06T10:54:10.414Z,55.06
2023-04-06T10:55:10.401Z,51.88
2023-04-06T10:56:10.431Z,52.53
2023-04-06T10:57:10.395Z,54.17
2023-04-06T10:58:10.385Z,53.83
2023-04-06T10:59:10.396Z,50.82
2023-04-06T11:00:12.172Z,54.45
2023-04-06T11:01:10.420Z,55.73
2023-04-06T11:02:11.481Z,57.75
2023-04-06T11:03:11.504Z,53.00
2023-04-06T11:04:11.486Z,54.70
2023-04-06T11:05:11.454Z,51.09
2023-04-06T11:06:11.482Z,50.73
2023-04-06T11:07:11.462Z,52.03
2023-04-06T11:08:11.441Z,53.37
2023-04-06T11:09:11.459Z,54.15
2023-04-06T11:10:17.508Z,53.05
2023-04-06T11:11:13.440Z,52.83
2023-04-06T11:12:11.399Z,53.88
2023-04-06T11:13:11.396Z,52.38
2023-04-06T11:14:11.406Z,56.84
2023-04-06T11:15:11.383Z,56.00
2023-04-06T11:16:11.438Z,57.20
2023-04-06T11:17:11.417Z,59.35
2023-04-06T11:18:11.412Z,57.03
2023-04-06T11:19:11.362Z,58.29
2023-04-06T11:20:11.341Z,56.56
2023-04-06T11:21:11.352Z,60.07
2023-04-06T11:22:11.329Z,56.45
2023-04-06T11:23:11.314Z,56.42
2023-04-06T11:24:11.316Z,58.09
2023-04-06T11:25:11.307Z,55.89
2023-04-06T11:26:11.329Z,52.51
2023-04-06T11:27:11.298Z,51.41
2023-04-06T11:28:11.284Z,54.64
2023-04-06T11:29:11.266Z,53.53
2023-04-06T11:30:11.262Z,53.36
2023-04-06T11:31:11.333Z,55.88
2023-04-06T11:32:11.255Z,53.22
2023-04-06T11:33:11.237Z,52.70
2023-04-06T11:34:11.228Z,52.93
2023-04-06T11:35:11.225Z,52.57
2023-04-06T11:36:11.266Z,54.63
2023-04-06T11:37:11.215Z,53.60
2023-04-06T11:38:11.214Z,53.53
2023-04-06T11:39:11.193Z,56.81
2023-04-06T11:40:11.192Z,54.06
2023-04-06T11:41:11.201Z,56.00
2023-04-06T11:42:11.176Z,56.41
2023-04-06T11:43:11.166Z,55.33
2023-04-06T11:44:11.153Z,52.61
2023-04-06T11:45:11.143Z,55.81
2023-04-06T11:46:11.282Z,53.61
2023-04-06T11:47:11.137Z,57.54
2023-04-06T11:49:11.135Z,56.26
2023-04-06T11:50:11.108Z,61.13
2023-04-06T11:51:11.122Z,54.91
2023-04-06T11:52:11.096Z,56.17
2023-04-06T11:53:11.093Z,58.12
2023-04-06T11:54:11.079Z,53.99
2023-04-06T11:55:11.083Z,54.85
2023-04-06T11:56:11.097Z,56.33
2023-04-06T11:57:11.052Z,54.73
2023-04-06T11:58:11.034Z,53.17
2023-04-06T11:59:11.050Z,50.47
2023-04-06T12:00:11.014Z,53.76
2023-04-06T12:01:11.046Z,53.35
2023-04-06T12:02:11.008Z,52.28
2023-04-06T12:03:11.041Z,52.70
2023-04-06T12:04:11.010Z,54.40
2023-04-06T12:05:10.980Z,55.82
2023-04-06T12:06:10.996Z,53.10
2023-04-06T12:07:10.971Z,54.10
2023-04-06T12:08:10.954Z,52.97
2023-04-06T12:09:10.939Z,54.67
2023-04-06T12:10:12.048Z,54.86
2023-04-06T12:11:10.959Z,53.12
2023-04-06T12:12:10.935Z,53.41
2023-04-06T12:13:10.927Z,54.30
2023-04-06T12:14:10.911Z,51.77
2023-04-06T12:15:10.890Z,52.26
2023-04-06T12:16:10.899Z,55.64
2023-04-06T12:17:10.915Z,57.67
2023-04-06T12:18:10.875Z,55.12
2023-04-06T12:19:10.877Z,53.14
2023-04-06T12:20:24.693Z,53.04
2023-04-06T12:21:12.885Z,50.55
2023-04-06T12:22:10.840Z,53.93
2023-04-06T12:23:10.827Z,52.84
2023-04-06T12:24:10.841Z,54.07
2023-04-06T12:25:10.816Z,54.00
2023-04-06T12:26:13.002Z,53.10
2023-04-06T12:27:11.044Z,55.70
2023-04-06T12:28:10.793Z,58.00
2023-04-06T12:29:10.789Z,59.74
2023-04-06T12:30:10.798Z,51.05
2023-04-06T12:31:10.800Z,52.73
2023-04-06T12:32:10.787Z,54.08
2023-04-06T12:33:10.799Z,57.56
2023-04-06T12:34:10.751Z,55.07
2023-04-06T12:35:10.746Z,52.99
2023-04-06T12:36:10.737Z,54.30
2023-04-06T12:37:10.753Z,54.91
2023-04-06T12:38:10.732Z,54.08
2023-04-06T12:39:10.708Z,54.47
2023-04-06T12:40:10.733Z,53.76
2023-04-06T12:41:10.708Z,49.35
2023-04-06T12:42:10.711Z,54.08
2023-04-06T12:43:10.689Z,52.93
2023-04-06T12:44:10.677Z,53.41
2023-04-06T12:45:10.679Z,54.56
2023-04-06T12:46:10.656Z,54.82
2023-04-06T12:47:10.801Z,54.60
2023-04-06T12:48:10.690Z,53.35
2023-04-06T12:49:10.638Z,55.87
2023-04-06T12:50:10.666Z,55.81
2023-04-06T12:51:10.626Z,55.77
2023-04-06T12:52:10.970Z,51.58
2023-04-06T12:53:10.605Z,51.70
2023-04-06T12:54:10.594Z,51.83
2023-04-06T12:55:10.592Z,55.92
2023-04-06T12:56:10.590Z,54.93
2023-04-06T12:57:10.601Z,53.46
2023-04-06T12:58:10.577Z,53.07